sensor_id;sensor_type;location;lat;lon;timestamp;pressure;altitude;pressure_sealevel;temperature;humidity
78675;BME280;67990;59.826;30.108;2023-05-07T00:00:24;102992.63;;;2.41;70.98
78675;BME280;67990;59.826;30.108;2023-05-07T00:02:51;102994.41;;;2.37;70.63
78675;BME280;67990;59.826;30.108;2023-05-07T00:05:19;102996.25;;;2.32;71.26
78675;BME280;67990;59.826;30.108;2023-05-07T00:07:47;102994.41;;;2.37;70.95
78675;BME280;67990;59.826;30.108;2023-05-07T00:10:15;103002.19;;;2.37;71.40
78675;BME280;67990;59.826;30.108;2023-05-07T00:12:42;102992.72;;;2.36;71.04
78675;BME280;67990;59.826;30.108;2023-05-07T00:15:10;102995.34;;;2.35;71.09
78675;BME280;67990;59.826;30.108;2023-05-07T00:17:37;102991.09;;;2.29;71.31
78675;BME280;67990;59.826;30.108;2023-05-07T00:20:05;102994.59;;;2.28;71.86
78675;BME280;67990;59.826;30.108;2023-05-07T00:22:32;102997.09;;;2.31;71.31
78675;BME280;67990;59.826;30.108;2023-05-07T00:25:01;102992.81;;;2.29;71.36
78675;BME280;67990;59.826;30.108;2023-05-07T00:27:47;102993.66;;;2.32;71.73
78675;BME280;67990;59.826;30.108;2023-05-07T00:30:14;102990.22;;;2.30;71.42
78675;BME280;67990;59.826;30.108;2023-05-07T00:33:00;102992.91;;;2.26;71.75
78675;BME280;67990;59.826;30.108;2023-05-07T00:35:28;102993.81;;;2.23;71.59
78675;BME280;67990;59.826;30.108;2023-05-07T00:41:00;102997.19;;;2.27;71.94
78675;BME280;67990;59.826;30.108;2023-05-07T00:43:28;102996.25;;;2.31;71.91
78675;BME280;67990;59.826;30.108;2023-05-07T00:46:13;103001.44;;;2.31;71.33
78675;BME280;67990;59.826;30.108;2023-05-07T00:48:41;102998.03;;;2.27;71.72
78675;BME280;67990;59.826;30.108;2023-05-07T00:51:09;102998.13;;;2.23;71.40
78675;BME280;67990;59.826;30.108;2023-05-07T00:53:37;102993.00;;;2.18;72.04
78675;BME280;67990;59.826;30.108;2023-05-07T00:59:10;103004.13;;;2.26;71.58
78675;BME280;67990;59.826;30.108;2023-05-07T01:01:56;102998.19;;;2.20;72.34
78675;BME280;67990;59.826;30.108;2023-05-07T01:04:24;102999.84;;;2.22;72.24
78675;BME280;67990;59.826;30.108;2023-05-07T01:09:55;102996.22;;;2.34;72.49
78675;BME280;67990;59.826;30.108;2023-05-07T01:12:25;102999.63;;;2.36;72.69
78675;BME280;67990;59.826;30.108;2023-05-07T01:15:10;102999.66;;;2.34;73.30
78675;BME280;67990;59.826;30.108;2023-05-07T01:17:40;102991.84;;;2.36;73.07
78675;BME280;67990;59.826;30.108;2023-05-07T01:20:12;103007.16;;;2.49;73.20
78675;BME280;67990;59.826;30.108;2023-05-07T01:22:45;103005.47;;;2.48;73.19
78675;BME280;67990;59.826;30.108;2023-05-07T01:25:13;103007.97;;;2.51;73.21
78675;BME280;67990;59.826;30.108;2023-05-07T01:30:35;103005.22;;;2.60;73.16
78675;BME280;67990;59.826;30.108;2023-05-07T01:33:09;103006.88;;;2.64;73.77
78675;BME280;67990;59.826;30.108;2023-05-07T01:35:39;103019.78;;;2.69;73.54
78675;BME280;67990;59.826;30.108;2023-05-07T01:38:09;103015.44;;;2.71;73.46
78675;BME280;67990;59.826;30.108;2023-05-07T01:43:42;103023.22;;;2.71;73.26
78675;BME280;67990;59.826;30.108;2023-05-07T01:46:10;103024.16;;;2.67;73.62
78675;BME280;67990;59.826;30.108;2023-05-07T01:48:56;103027.56;;;2.67;73.62
78675;BME280;67990;59.826;30.108;2023-05-07T01:51:23;103028.41;;;2.69;73.60
78675;BME280;67990;59.826;30.108;2023-05-07T01:56:56;103029.69;;;2.93;73.63
78675;BME280;67990;59.826;30.108;2023-05-07T01:59:23;103023.53;;;2.98;73.20
78675;BME280;67990;59.826;30.108;2023-05-07T02:02:09;103027.97;;;2.92;73.13
78675;BME280;67990;59.826;30.108;2023-05-07T02:04:39;103027.06;;;2.94;73.35
78675;BME280;67990;59.826;30.108;2023-05-07T02:07:25;103022.66;;;2.98;72.89
78675;BME280;67990;59.826;30.108;2023-05-07T02:09:54;103026.13;;;2.98;72.77
78675;BME280;67990;59.826;30.108;2023-05-07T02:12:21;103032.97;;;3.02;73.34
78675;BME280;67990;59.826;30.108;2023-05-07T02:17:35;103026.59;;;3.17;72.45
78675;BME280;67990;59.826;30.108;2023-05-07T02:20:21;103033.66;;;3.10;73.04
78675;BME280;67990;59.826;30.108;2023-05-07T02:22:48;103025.00;;;3.11;73.14
78675;BME280;67990;59.826;30.108;2023-05-07T02:25:17;103031.81;;;3.15;73.13
78675;BME280;67990;59.826;30.108;2023-05-07T02:28:02;103030.72;;;3.27;72.89
78675;BME280;67990;59.826;30.108;2023-05-07T02:30:48;103028.94;;;3.29;72.54
78675;BME280;67990;59.826;30.108;2023-05-07T02:33:16;103033.13;;;3.34;72.84
78675;BME280;67990;59.826;30.108;2023-05-07T02:35:44;103027.00;;;3.38;72.43
78675;BME280;67990;59.826;30.108;2023-05-07T02:38:32;103032.97;;;3.43;72.65
78675;BME280;67990;59.826;30.108;2023-05-07T02:41:00;103032.72;;;3.54;72.85
78675;BME280;67990;59.826;30.108;2023-05-07T02:43:27;103034.28;;;3.61;72.29
78675;BME280;67990;59.826;30.108;2023-05-07T02:46:02;103030.63;;;3.69;72.04
78675;BME280;67990;59.826;30.108;2023-05-07T02:48:30;103033.94;;;3.76;72.00
78675;BME280;67990;59.826;30.108;2023-05-07T02:50:58;103026.09;;;3.79;72.17
78675;BME280;67990;59.826;30.108;2023-05-07T02:53:25;103029.56;;;3.78;72.24
78675;BME280;67990;59.826;30.108;2023-05-07T02:55:53;103028.53;;;3.85;72.42
78675;BME280;67990;59.826;30.108;2023-05-07T02:58:21;103033.53;;;3.92;71.73
78675;BME280;67990;59.826;30.108;2023-05-07T03:01:08;103020.28;;;4.03;71.87
78675;BME280;67990;59.826;30.108;2023-05-07T03:03:40;103026.22;;;4.09;71.19
78675;BME280;67990;59.826;30.108;2023-05-07T03:06:07;103032.16;;;4.14;71.11
78675;BME280;67990;59.826;30.108;2023-05-07T03:08:34;103032.66;;;4.28;71.20
78675;BME280;67990;59.826;30.108;2023-05-07T03:11:38;103031.50;;;4.40;70.44
78675;BME280;67990;59.826;30.108;2023-05-07T03:14:06;103028.81;;;4.43;70.52
78675;BME280;67990;59.826;30.108;2023-05-07T03:16:33;103033.47;;;4.64;70.22
78675;BME280;67990;59.826;30.108;2023-05-07T03:19:01;103033.84;;;4.81;69.48
78675;BME280;67990;59.826;30.108;2023-05-07T03:24:32;103031.91;;;5.19;68.45
78675;BME280;67990;59.826;30.108;2023-05-07T03:26:59;103026.06;;;5.40;67.69
78675;BME280;67990;59.826;30.108;2023-05-07T03:29:46;103026.59;;;5.79;66.82
78675;BME280;67990;59.826;30.108;2023-05-07T03:32:13;103033.84;;;6.25;66.63
78675;BME280;67990;59.826;30.108;2023-05-07T03:34:41;103037.13;;;6.56;65.41
78675;BME280;67990;59.826;30.108;2023-05-07T03:37:12;103036.97;;;6.85;64.68
78675;BME280;67990;59.826;30.108;2023-05-07T03:39:39;103039.16;;;7.43;63.08
78675;BME280;67990;59.826;30.108;2023-05-07T03:42:07;103039.69;;;7.74;61.39
78675;BME280;67990;59.826;30.108;2023-05-07T03:44:35;103036.75;;;8.03;60.21
78675;BME280;67990;59.826;30.108;2023-05-07T03:50:09;103046.28;;;8.87;58.16
78675;BME280;67990;59.826;30.108;2023-05-07T03:55:23;103049.91;;;9.60;56.09
78675;BME280;67990;59.826;30.108;2023-05-07T03:57:56;103058.13;;;9.71;55.35
78675;BME280;67990;59.826;30.108;2023-05-07T04:00:25;103057.84;;;9.77;54.75
78675;BME280;67990;59.826;30.108;2023-05-07T04:02:53;103054.56;;;9.90;54.06
78675;BME280;67990;59.826;30.108;2023-05-07T04:05:43;103058.91;;;10.27;53.08
78675;BME280;67990;59.826;30.108;2023-05-07T04:08:11;103057.28;;;10.41;52.38
78675;BME280;67990;59.826;30.108;2023-05-07T04:10:59;103064.16;;;10.44;52.26
78675;BME280;67990;59.826;30.108;2023-05-07T04:13:44;103062.00;;;10.35;52.37
78675;BME280;67990;59.826;30.108;2023-05-07T04:16:11;103065.84;;;10.28;51.70
78675;BME280;67990;59.826;30.108;2023-05-07T04:18:39;103074.06;;;10.22;52.00
78675;BME280;67990;59.826;30.108;2023-05-07T04:21:25;103063.63;;;10.20;51.97
78675;BME280;67990;59.826;30.108;2023-05-07T04:23:53;103072.72;;;10.13;52.00
78675;BME280;67990;59.826;30.108;2023-05-07T04:26:20;103067.19;;;10.01;51.95
78675;BME280;67990;59.826;30.108;2023-05-07T04:28:50;103066.53;;;9.96;52.15
78675;BME280;67990;59.826;30.108;2023-05-07T04:31:17;103070.94;;;9.95;52.61
78675;BME280;67990;59.826;30.108;2023-05-07T04:33:50;103067.19;;;10.01;52.49
78675;BME280;67990;59.826;30.108;2023-05-07T04:36:18;103069.47;;;9.90;52.47
78675;BME280;67990;59.826;30.108;2023-05-07T04:38:54;103072.22;;;10.05;51.88
78675;BME280;67990;59.826;30.108;2023-05-07T04:47:11;103076.06;;;9.98;51.88
78675;BME280;67990;59.826;30.108;2023-05-07T04:49:40;103079.91;;;9.91;52.06
78675;BME280;67990;59.826;30.108;2023-05-07T04:52:08;103081.72;;;10.08;51.39
78675;BME280;67990;59.826;30.108;2023-05-07T04:54:35;103087.06;;;10.42;51.03
78675;BME280;67990;59.826;30.108;2023-05-07T04:57:21;103084.66;;;10.71;50.39
78675;BME280;67990;59.826;30.108;2023-05-07T04:59:48;103085.63;;;11.03;49.38
78675;BME280;67990;59.826;30.108;2023-05-07T05:02:15;103084.34;;;11.27;48.18
78675;BME280;67990;59.826;30.108;2023-05-07T05:04:44;103075.69;;;11.73;47.63
78675;BME280;67990;59.826;30.108;2023-05-07T05:07:11;103080.19;;;12.02;47.28
78675;BME280;67990;59.826;30.108;2023-05-07T05:09:57;103076.47;;;12.36;46.26
78675;BME280;67990;59.826;30.108;2023-05-07T05:12:24;103071.84;;;12.55;45.80
78675;BME280;67990;59.826;30.108;2023-05-07T05:14:52;103075.53;;;12.66;45.16
78675;BME280;67990;59.826;30.108;2023-05-07T05:20:25;103076.34;;;12.96;44.41
78675;BME280;67990;59.826;30.108;2023-05-07T05:23:28;103085.25;;;13.37;43.53
78675;BME280;67990;59.826;30.108;2023-05-07T05:25:56;103079.03;;;13.52;42.92
78675;BME280;67990;59.826;30.108;2023-05-07T05:28:25;103079.00;;;13.66;41.81
78675;BME280;67990;59.826;30.108;2023-05-07T05:31:12;103089.47;;;14.22;41.15
78675;BME280;67990;59.826;30.108;2023-05-07T05:33:40;103081.81;;;16.05;38.01
78675;BME280;67990;59.826;30.108;2023-05-07T05:36:10;103079.00;;;17.99;34.51
78675;BME280;67990;59.826;30.108;2023-05-07T05:38:38;103081.97;;;19.09;32.58
78675;BME280;67990;59.826;30.108;2023-05-07T05:44:11;103078.34;;;19.70;30.60
78675;BME280;67990;59.826;30.108;2023-05-07T05:46:38;103078.13;;;20.02;29.92
78675;BME280;67990;59.826;30.108;2023-05-07T05:49:24;103077.03;;;20.61;28.54
78675;BME280;67990;59.826;30.108;2023-05-07T05:52:12;103073.72;;;21.05;27.57
78675;BME280;67990;59.826;30.108;2023-05-07T05:54:39;103082.72;;;23.08;24.58
78675;BME280;67990;59.826;30.108;2023-05-07T05:57:26;103081.38;;;24.37;24.19
78675;BME280;67990;59.826;30.108;2023-05-07T05:59:53;103079.50;;;24.93;22.61
78675;BME280;67990;59.826;30.108;2023-05-07T06:02:21;103075.00;;;25.79;20.45
78675;BME280;67990;59.826;30.108;2023-05-07T06:04:48;103072.47;;;24.76;20.48
78675;BME280;67990;59.826;30.108;2023-05-07T06:07:20;103074.53;;;25.75;19.08
78675;BME280;67990;59.826;30.108;2023-05-07T06:12:52;103081.75;;;24.66;19.92
78675;BME280;67990;59.826;30.108;2023-05-07T06:15:20;103079.06;;;25.36;18.20
78675;BME280;67990;59.826;30.108;2023-05-07T06:17:47;103077.50;;;24.71;19.07
78675;BME280;67990;59.826;30.108;2023-05-07T06:20:15;103079.53;;;24.77;18.75
78675;BME280;67990;59.826;30.108;2023-05-07T06:22:44;103085.94;;;24.60;19.08
78675;BME280;67990;59.826;30.108;2023-05-07T06:27:59;103094.41;;;23.58;20.16
78675;BME280;67990;59.826;30.108;2023-05-07T06:30:27;103091.38;;;24.03;20.36
78675;BME280;67990;59.826;30.108;2023-05-07T06:33:13;103097.47;;;25.01;20.16
78675;BME280;67990;59.826;30.108;2023-05-07T06:35:59;103096.34;;;23.90;19.85
78675;BME280;67990;59.826;30.108;2023-05-07T06:38:28;103102.50;;;23.07;20.46
78675;BME280;67990;59.826;30.108;2023-05-07T06:41:14;103102.78;;;23.22;21.01
78675;BME280;67990;59.826;30.108;2023-05-07T06:44:00;103096.47;;;22.80;20.76
78675;BME280;67990;59.826;30.108;2023-05-07T06:46:41;103099.47;;;23.61;21.28
78675;BME280;67990;59.826;30.108;2023-05-07T06:51:55;103093.59;;;25.11;19.25
78675;BME280;67990;59.826;30.108;2023-05-07T06:54:24;103100.03;;;24.30;19.38
78675;BME280;67990;59.826;30.108;2023-05-07T06:56:51;103096.44;;;23.56;19.83
78675;BME280;67990;59.826;30.108;2023-05-07T07:02:05;103087.63;;;23.80;20.47
78675;BME280;67990;59.826;30.108;2023-05-07T07:04:50;103092.66;;;24.80;18.85
78675;BME280;67990;59.826;30.108;2023-05-07T07:07:19;103094.00;;;24.76;18.49
78675;BME280;67990;59.826;30.108;2023-05-07T07:10:07;103086.75;;;26.62;17.15
78675;BME280;67990;59.826;30.108;2023-05-07T07:12:34;103089.63;;;26.38;16.96
78675;BME280;67990;59.826;30.108;2023-05-07T07:15:03;103093.22;;;25.22;18.18
78675;BME280;67990;59.826;30.108;2023-05-07T07:17:30;103091.72;;;26.05;16.98
78675;BME280;67990;59.826;30.108;2023-05-07T07:19:58;103089.06;;;25.12;17.66
78675;BME280;67990;59.826;30.108;2023-05-07T07:22:25;103092.44;;;24.98;18.79
78675;BME280;67990;59.826;30.108;2023-05-07T07:25:13;103091.94;;;24.54;19.47
78675;BME280;67990;59.826;30.108;2023-05-07T07:27:40;103086.16;;;25.68;18.33
78675;BME280;67990;59.826;30.108;2023-05-07T07:30:09;103088.19;;;25.27;17.86
78675;BME280;67990;59.826;30.108;2023-05-07T07:32:57;103090.94;;;24.79;18.40
78675;BME280;67990;59.826;30.108;2023-05-07T07:35:42;103087.88;;;25.14;18.02
78675;BME280;67990;59.826;30.108;2023-05-07T07:38:10;103091.44;;;24.35;18.57
78675;BME280;67990;59.826;30.108;2023-05-07T07:40:57;103091.56;;;24.09;18.77
78675;BME280;67990;59.826;30.108;2023-05-07T07:49:32;103087.28;;;24.80;18.64
78675;BME280;67990;59.826;30.108;2023-05-07T07:52:23;103084.13;;;25.23;18.40
78675;BME280;67990;59.826;30.108;2023-05-07T07:55:09;103080.81;;;25.90;16.97
78675;BME280;67990;59.826;30.108;2023-05-07T07:57:55;103089.25;;;24.94;17.45
78675;BME280;67990;59.826;30.108;2023-05-07T08:00:23;103079.44;;;26.48;17.10
78675;BME280;67990;59.826;30.108;2023-05-07T08:05:45;103084.22;;;24.67;17.94
78675;BME280;67990;59.826;30.108;2023-05-07T08:08:12;103077.16;;;24.18;17.54
78675;BME280;67990;59.826;30.108;2023-05-07T08:10:58;103080.00;;;24.17;18.14
78675;BME280;67990;59.826;30.108;2023-05-07T08:13:31;103081.53;;;24.75;17.76
78675;BME280;67990;59.826;30.108;2023-05-07T08:15:59;103078.50;;;24.54;16.86
78675;BME280;67990;59.826;30.108;2023-05-07T08:18:27;103077.94;;;26.00;16.08
78675;BME280;67990;59.826;30.108;2023-05-07T08:21:13;103078.16;;;24.97;15.77
78675;BME280;67990;59.826;30.108;2023-05-07T08:23:41;103074.28;;;24.04;16.62
78675;BME280;67990;59.826;30.108;2023-05-07T08:26:27;103072.31;;;24.38;16.12
78675;BME280;67990;59.826;30.108;2023-05-07T08:28:56;103073.03;;;26.26;15.10
78675;BME280;67990;59.826;30.108;2023-05-07T08:31:24;103067.09;;;24.84;15.43
78675;BME280;67990;59.826;30.108;2023-05-07T08:36:41;103072.06;;;21.95;16.95
78675;BME280;67990;59.826;30.108;2023-05-07T08:39:10;103065.78;;;21.23;17.73
78675;BME280;67990;59.826;30.108;2023-05-07T08:41:38;103069.44;;;20.47;18.36
78675;BME280;67990;59.826;30.108;2023-05-07T08:44:12;103070.00;;;20.22;18.97
78675;BME280;67990;59.826;30.108;2023-05-07T08:46:58;103068.81;;;21.01;18.99
78675;BME280;67990;59.826;30.108;2023-05-07T08:49:45;103064.03;;;20.95;17.95
78675;BME280;67990;59.826;30.108;2023-05-07T08:52:13;103062.06;;;21.70;16.95
78675;BME280;67990;59.826;30.108;2023-05-07T08:57:27;103065.56;;;21.98;17.04
78675;BME280;67990;59.826;30.108;2023-05-07T08:59:55;103062.72;;;21.18;17.41
78675;BME280;67990;59.826;30.108;2023-05-07T09:02:22;103057.81;;;19.61;17.43
78675;BME280;67990;59.826;30.108;2023-05-07T09:04:50;103060.72;;;19.19;18.92
78675;BME280;67990;59.826;30.108;2023-05-07T09:07:19;103067.38;;;18.42;19.50
78675;BME280;67990;59.826;30.108;2023-05-07T09:10:06;103070.16;;;17.98;20.05
78675;BME280;67990;59.826;30.108;2023-05-07T09:12:51;103069.16;;;17.35;20.48
78675;BME280;67990;59.826;30.108;2023-05-07T09:15:56;103077.41;;;19.21;19.83
78675;BME280;67990;59.826;30.108;2023-05-07T09:18:24;103067.19;;;20.14;18.95
78675;BME280;67990;59.826;30.108;2023-05-07T09:20:52;103060.16;;;20.61;18.75
78675;BME280;67990;59.826;30.108;2023-05-07T09:23:21;103062.69;;;21.82;17.88
78675;BME280;67990;59.826;30.108;2023-05-07T09:25:48;103067.63;;;22.21;17.56
78675;BME280;67990;59.826;30.108;2023-05-07T09:28:23;103065.56;;;21.71;17.19
78675;BME280;67990;59.826;30.108;2023-05-07T09:30:50;103062.09;;;21.88;17.23
78675;BME280;67990;59.826;30.108;2023-05-07T09:33:19;103061.25;;;21.60;16.95
78675;BME280;67990;59.826;30.108;2023-05-07T09:35:51;103061.00;;;22.68;16.60
78675;BME280;67990;59.826;30.108;2023-05-07T09:38:21;103063.94;;;21.87;15.99
78675;BME280;67990;59.826;30.108;2023-05-07T09:41:02;103066.53;;;21.06;16.89
78675;BME280;67990;59.826;30.108;2023-05-07T09:43:32;103065.09;;;20.56;16.96
78675;BME280;67990;59.826;30.108;2023-05-07T09:46:03;103063.47;;;19.87;17.96
78675;BME280;67990;59.826;30.108;2023-05-07T09:48:50;103067.28;;;19.45;18.06
78675;BME280;67990;59.826;30.108;2023-05-07T09:51:22;103072.38;;;18.56;18.79
78675;BME280;67990;59.826;30.108;2023-05-07T09:56:43;103067.69;;;17.64;19.82
78675;BME280;67990;59.826;30.108;2023-05-07T09:59:31;103073.53;;;17.47;20.88
78675;BME280;67990;59.826;30.108;2023-05-07T10:02:03;103060.22;;;17.14;21.74
78675;BME280;67990;59.826;30.108;2023-05-07T10:04:33;103069.94;;;16.69;22.52
78675;BME280;67990;59.826;30.108;2023-05-07T10:10:10;103072.47;;;16.82;22.69
78675;BME280;67990;59.826;30.108;2023-05-07T10:15:32;103069.50;;;16.97;22.82
78675;BME280;67990;59.826;30.108;2023-05-07T10:18:03;103066.59;;;17.33;22.32
78675;BME280;67990;59.826;30.108;2023-05-07T10:20:32;103063.22;;;17.20;22.28
78675;BME280;67990;59.826;30.108;2023-05-07T10:23:04;103063.88;;;17.99;22.39
78675;BME280;67990;59.826;30.108;2023-05-07T10:25:38;103064.69;;;18.11;21.80
78675;BME280;67990;59.826;30.108;2023-05-07T10:28:14;103067.69;;;17.64;21.78
78675;BME280;67990;59.826;30.108;2023-05-07T10:30:51;103068.44;;;17.22;22.39
78675;BME280;67990;59.826;30.108;2023-05-07T10:33:29;103076.47;;;16.76;22.00
78675;BME280;67990;59.826;30.108;2023-05-07T10:36:01;103067.72;;;16.52;22.42
78675;BME280;67990;59.826;30.108;2023-05-07T10:38:31;103072.94;;;16.76;22.64
78675;BME280;67990;59.826;30.108;2023-05-07T10:41:00;103059.50;;;17.12;22.86
78675;BME280;67990;59.826;30.108;2023-05-07T10:43:41;103065.16;;;17.07;22.84
78675;BME280;67990;59.826;30.108;2023-05-07T10:46:29;103067.06;;;16.48;23.40
78675;BME280;67990;59.826;30.108;2023-05-07T10:49:09;103061.75;;;16.25;23.77
78675;BME280;67990;59.826;30.108;2023-05-07T10:52:16;103069.13;;;16.45;24.05
78675;BME280;67990;59.826;30.108;2023-05-07T10:55:21;103059.13;;;16.01;23.67
78675;BME280;67990;59.826;30.108;2023-05-07T10:58:23;103050.66;;;16.20;23.87
78675;BME280;67990;59.826;30.108;2023-05-07T11:00:57;103057.94;;;16.29;24.32
78675;BME280;67990;59.826;30.108;2023-05-07T11:03:30;103057.47;;;16.35;24.41
78675;BME280;67990;59.826;30.108;2023-05-07T11:09:08;103059.53;;;16.66;23.84
78675;BME280;67990;59.826;30.108;2023-05-07T11:11:54;103053.00;;;15.65;24.28
78675;BME280;67990;59.826;30.108;2023-05-07T11:14:44;103052.28;;;15.86;25.32
78675;BME280;67990;59.826;30.108;2023-05-07T11:17:17;103049.78;;;15.49;25.85
78675;BME280;67990;59.826;30.108;2023-05-07T11:19:51;103058.34;;;15.27;25.50
78675;BME280;67990;59.826;30.108;2023-05-07T11:22:39;103061.63;;;15.31;25.25
78675;BME280;67990;59.826;30.108;2023-05-07T11:25:35;103055.84;;;15.13;26.03
78675;BME280;67990;59.826;30.108;2023-05-07T11:28:31;103054.97;;;14.88;26.42
78675;BME280;67990;59.826;30.108;2023-05-07T11:31:02;103057.84;;;14.97;26.59
78675;BME280;67990;59.826;30.108;2023-05-07T11:33:50;103058.88;;;14.57;26.95
78675;BME280;67990;59.826;30.108;2023-05-07T11:36:24;103056.66;;;14.51;27.78
78675;BME280;67990;59.826;30.108;2023-05-07T11:39:29;103058.69;;;14.85;28.00
78675;BME280;67990;59.826;30.108;2023-05-07T11:42:00;103057.72;;;15.11;27.00
78675;BME280;67990;59.826;30.108;2023-05-07T11:44:44;103049.91;;;14.97;27.00
78675;BME280;67990;59.826;30.108;2023-05-07T11:47:12;103064.19;;;14.82;26.59
78675;BME280;67990;59.826;30.108;2023-05-07T11:49:46;103067.28;;;15.01;26.97
78675;BME280;67990;59.826;30.108;2023-05-07T11:52:13;103052.44;;;14.99;26.73
78675;BME280;67990;59.826;30.108;2023-05-07T11:57:28;103067.66;;;14.58;27.58
78675;BME280;67990;59.826;30.108;2023-05-07T11:59:55;103060.63;;;14.44;27.17
78675;BME280;67990;59.826;30.108;2023-05-07T12:02:23;103061.88;;;14.26;27.86
78675;BME280;67990;59.826;30.108;2023-05-07T12:05:09;103058.63;;;14.35;27.21
78675;BME280;67990;59.826;30.108;2023-05-07T12:07:56;103056.59;;;14.12;28.22
78675;BME280;67990;59.826;30.108;2023-05-07T12:13:29;103057.22;;;14.30;27.36
78675;BME280;67990;59.826;30.108;2023-05-07T12:15:57;103062.22;;;13.94;27.70
78675;BME280;67990;59.826;30.108;2023-05-07T12:18:24;103054.53;;;13.77;28.12
78675;BME280;67990;59.826;30.108;2023-05-07T12:20:52;103050.53;;;13.57;28.69
78675;BME280;67990;59.826;30.108;2023-05-07T12:23:20;103043.69;;;13.27;28.95
78675;BME280;67990;59.826;30.108;2023-05-07T12:25:48;103044.69;;;13.38;28.67
78675;BME280;67990;59.826;30.108;2023-05-07T12:28:17;103043.97;;;13.36;29.12
78675;BME280;67990;59.826;30.108;2023-05-07T12:30:47;103049.31;;;13.49;29.27
78675;BME280;67990;59.826;30.108;2023-05-07T12:33:16;103049.03;;;13.53;29.34
78675;BME280;67990;59.826;30.108;2023-05-07T12:35:44;103041.09;;;13.53;29.22
78675;BME280;67990;59.826;30.108;2023-05-07T12:38:35;103051.13;;;13.48;29.35
78675;BME280;67990;59.826;30.108;2023-05-07T12:41:02;103053.53;;;13.65;29.54
78675;BME280;67990;59.826;30.108;2023-05-07T12:43:30;103052.22;;;13.58;29.48
78675;BME280;67990;59.826;30.108;2023-05-07T12:46:01;103055.06;;;13.55;29.83
78675;BME280;67990;59.826;30.108;2023-05-07T12:48:28;103047.53;;;13.49;30.08
78675;BME280;67990;59.826;30.108;2023-05-07T12:50:56;103047.72;;;13.46;30.84
78675;BME280;67990;59.826;30.108;2023-05-07T12:53:25;103043.28;;;13.47;31.67
78675;BME280;67990;59.826;30.108;2023-05-07T12:55:54;103045.66;;;13.37;30.69
78675;BME280;67990;59.826;30.108;2023-05-07T12:58:24;103048.19;;;13.39;30.64
78675;BME280;67990;59.826;30.108;2023-05-07T13:01:13;103046.41;;;13.39;30.42
78675;BME280;67990;59.826;30.108;2023-05-07T13:04:03;103056.78;;;13.28;30.39
78675;BME280;67990;59.826;30.108;2023-05-07T13:06:50;103051.88;;;13.22;30.97
78675;BME280;67990;59.826;30.108;2023-05-07T13:09:17;103056.22;;;13.23;31.45
78675;BME280;67990;59.826;30.108;2023-05-07T13:11:44;103053.22;;;13.15;31.39
78675;BME280;67990;59.826;30.108;2023-05-07T13:14:29;103046.34;;;13.13;31.62
78675;BME280;67990;59.826;30.108;2023-05-07T13:19:44;103045.75;;;13.08;31.70
78675;BME280;67990;59.826;30.108;2023-05-07T13:22:11;103046.44;;;13.11;31.67
78675;BME280;67990;59.826;30.108;2023-05-07T13:24:38;103049.16;;;13.10;32.39
78675;BME280;67990;59.826;30.108;2023-05-07T13:27:23;103056.03;;;12.98;32.45
78675;BME280;67990;59.826;30.108;2023-05-07T13:29:50;103044.25;;;13.04;32.33
78675;BME280;67990;59.826;30.108;2023-05-07T13:32:19;103047.41;;;12.95;32.57
78675;BME280;67990;59.826;30.108;2023-05-07T13:35:03;103056.34;;;12.78;33.37
78675;BME280;67990;59.826;30.108;2023-05-07T13:37:32;103046.66;;;12.93;33.79
78675;BME280;67990;59.826;30.108;2023-05-07T13:43:02;103051.63;;;12.69;33.76
78675;BME280;67990;59.826;30.108;2023-05-07T13:45:30;103049.09;;;12.82;34.65
78675;BME280;67990;59.826;30.108;2023-05-07T13:47:58;103054.63;;;12.63;34.89
78675;BME280;67990;59.826;30.108;2023-05-07T13:50:25;103049.63;;;12.59;34.16
78675;BME280;67990;59.826;30.108;2023-05-07T13:53:28;103044.13;;;12.77;33.64
78675;BME280;67990;59.826;30.108;2023-05-07T13:55:55;103047.56;;;12.64;33.36
78675;BME280;67990;59.826;30.108;2023-05-07T13:58:41;103047.34;;;12.53;34.46
78675;BME280;67990;59.826;30.108;2023-05-07T14:01:09;103047.56;;;12.64;35.27
78675;BME280;67990;59.826;30.108;2023-05-07T14:03:37;103046.69;;;12.49;35.16
78675;BME280;67990;59.826;30.108;2023-05-07T14:06:05;103042.72;;;12.56;35.86
78675;BME280;67990;59.826;30.108;2023-05-07T14:11:35;103033.81;;;12.29;36.91
78675;BME280;67990;59.826;30.108;2023-05-07T14:17:05;103040.44;;;11.91;37.72
78675;BME280;67990;59.826;30.108;2023-05-07T14:19:35;103045.84;;;12.04;38.36
78675;BME280;67990;59.826;30.108;2023-05-07T14:22:02;103039.81;;;11.86;38.50
78675;BME280;67990;59.826;30.108;2023-05-07T14:27:15;103040.69;;;11.87;38.79
78675;BME280;67990;59.826;30.108;2023-05-07T14:29:42;103040.09;;;11.97;38.70
78675;BME280;67990;59.826;30.108;2023-05-07T14:32:11;103037.03;;;11.89;38.76
78675;BME280;67990;59.826;30.108;2023-05-07T14:34:39;103040.53;;;11.74;38.62
78675;BME280;67990;59.826;30.108;2023-05-07T14:39:52;103032.63;;;11.74;39.11
78675;BME280;67990;59.826;30.108;2023-05-07T14:42:19;103043.59;;;11.82;38.74
78675;BME280;67990;59.826;30.108;2023-05-07T14:45:04;103034.38;;;11.58;38.48
78675;BME280;67990;59.826;30.108;2023-05-07T14:56:08;103022.22;;;11.40;39.16
78675;BME280;67990;59.826;30.108;2023-05-07T14:58:35;103028.41;;;11.54;39.26
78675;BME280;67990;59.826;30.108;2023-05-07T15:04:24;103028.84;;;11.47;39.63
78675;BME280;67990;59.826;30.108;2023-05-07T15:06:53;103036.31;;;11.39;39.71
78675;BME280;67990;59.826;30.108;2023-05-07T15:09:22;103029.00;;;11.44;39.74